HVN286 VVTS-VYYY
Flight info
| Callsign | HVN286 |
|---|---|
| Flight time | N/A |
| Altitude | 36000 |
| Route | SAPEN5A SAPEN R468 ELMOP P629 BKK P646 BETNO ENSIT1A |
| Aircraft | A332/H-SDE3GHIJ2J3J5M1RVWXY/LB2D1 |
Departure
| Time | 2026-05-05 18:17 |
|---|---|
| Airport | Tan Son Nhat International Airport (VVTS) |
Arrival
| Time | N/A |
|---|---|
| Airport | Yangon International Airport (VYYY) |
| Time | Latitude | Longitude | Altitude | Speed | Heading |
|---|---|---|---|---|---|
| 2026-05-05 18:07 | 10.81833 | 106.66575 | 41 ft | 0 kts | 159° |
| 2026-05-05 18:09 | 10.81840 | 106.66572 | 39 ft | 3 kts | 159° |
| 2026-05-05 18:09 | 10.81859 | 106.66564 | 41 ft | 3 kts | 159° |
| 2026-05-05 18:09 | 10.81878 | 106.66557 | 36 ft | 3 kts | 159° |
| 2026-05-05 18:09 | 10.81895 | 106.66550 | 38 ft | 3 kts | 152° |
| 2026-05-05 18:10 | 10.81911 | 106.66538 | 38 ft | 3 kts | 122° |
| 2026-05-05 18:10 | 10.81917 | 106.66521 | 37 ft | 3 kts | 81° |
| 2026-05-05 18:10 | 10.81911 | 106.66502 | 38 ft | 3 kts | 64° |
| 2026-05-05 18:10 | 10.81904 | 106.66486 | 37 ft | 0 kts | 69° |
| 2026-05-05 18:12 | 10.81904 | 106.66488 | 37 ft | 1 kts | 69° |
| 2026-05-05 18:13 | 10.81927 | 106.66549 | 54 ft | 13 kts | 69° |
| 2026-05-05 18:13 | 10.81964 | 106.66645 | 40 ft | 15 kts | 69° |
| 2026-05-05 18:13 | 10.81996 | 106.66729 | 39 ft | 12 kts | 69° |
| 2026-05-05 18:14 | 10.82203 | 106.67002 | 39 ft | 11 kts | 38° |
| 2026-05-05 18:14 | 10.82244 | 106.67015 | 39 ft | 8 kts | 349° |
| 2026-05-05 18:15 | 10.82268 | 106.67004 | 39 ft | 0 kts | 336° |
| 2026-05-05 18:15 | 10.82271 | 106.67003 | 39 ft | 2 kts | 336° |
| 2026-05-05 18:15 | 10.82307 | 106.66982 | 38 ft | 12 kts | 321° |
| 2026-05-05 18:15 | 10.82358 | 106.66924 | 38 ft | 9 kts | 288° |
| 2026-05-05 18:16 | 10.82332 | 106.66852 | 35 ft | 9 kts | 248° |
| 2026-05-05 18:16 | 10.82315 | 106.66808 | 37 ft | 15 kts | 248° |
| 2026-05-05 18:16 | 10.82218 | 106.66552 | 37 ft | 66 kts | 250° |
| 2026-05-05 18:16 | 10.81990 | 106.65947 | 44 ft | 115 kts | 249° |
| 2026-05-05 18:17 | 10.81649 | 106.65046 | 44 ft | 156 kts | 249° |
| 2026-05-05 18:17 | 10.81217 | 106.63913 | 173 ft | 181 kts | 250° |
| 2026-05-05 18:17 | 10.80762 | 106.62701 | 721 ft | 179 kts | 248° |
| 2026-05-05 18:17 | 10.80322 | 106.61538 | 1368 ft | 176 kts | 245° |
| 2026-05-05 18:18 | 10.79864 | 106.60359 | 1740 ft | 187 kts | 245° |
| 2026-05-05 18:18 | 10.79372 | 106.59076 | 1961 ft | 205 kts | 247° |
| 2026-05-05 18:18 | 10.78845 | 106.57684 | 2289 ft | 215 kts | 247° |
| 2026-05-05 18:18 | 10.78294 | 106.56228 | 2595 ft | 228 kts | 248° |
| 2026-05-05 18:19 | 10.77812 | 106.54620 | 2789 ft | 249 kts | 261° |
| 2026-05-05 18:19 | 10.77930 | 106.52810 | 2983 ft | 269 kts | 290° |
| 2026-05-05 18:19 | 10.78837 | 106.51114 | 3444 ft | 276 kts | 306° |
| 2026-05-05 18:19 | 10.79960 | 106.49522 | 4137 ft | 278 kts | 308° |
| 2026-05-05 18:20 | 10.81110 | 106.47934 | 4845 ft | 279 kts | 308° |
| 2026-05-05 18:20 | 10.82247 | 106.46353 | 5551 ft | 281 kts | 308° |
| 2026-05-05 18:20 | 10.83400 | 106.44738 | 6278 ft | 283 kts | 307° |
| 2026-05-05 18:20 | 10.84559 | 106.43104 | 6956 ft | 286 kts | 307° |
| 2026-05-05 18:21 | 10.85728 | 106.41452 | 7656 ft | 289 kts | 307° |
| 2026-05-05 18:21 | 10.86904 | 106.39786 | 8367 ft | 291 kts | 307° |
| 2026-05-05 18:21 | 10.88086 | 106.38109 | 9138 ft | 292 kts | 307° |
| 2026-05-05 18:21 | 10.89276 | 106.36420 | 9869 ft | 296 kts | 307° |
| 2026-05-05 18:22 | 10.90494 | 106.34692 | 10378 ft | 308 kts | 306° |
| 2026-05-05 18:22 | 10.91781 | 106.32866 | 10636 ft | 326 kts | 306° |
| 2026-05-05 18:22 | 10.93138 | 106.30941 | 10881 ft | 343 kts | 306° |
| 2026-05-05 18:22 | 10.94554 | 106.28929 | 11221 ft | 355 kts | 306° |
| 2026-05-05 18:23 | 10.96005 | 106.26868 | 11752 ft | 361 kts | 306° |
| 2026-05-05 18:23 | 10.97473 | 106.24781 | 12311 ft | 365 kts | 306° |
| 2026-05-05 18:23 | 10.98940 | 106.22696 | 12873 ft | 368 kts | 306° |
| 2026-05-05 18:23 | 11.00437 | 106.20568 | 13436 ft | 372 kts | 306° |
| 2026-05-05 18:24 | 11.01872 | 106.18364 | 13952 ft | 375 kts | 299° |
| 2026-05-05 18:24 | 11.03058 | 106.15984 | 14458 ft | 378 kts | 294° |
| 2026-05-05 18:24 | 11.04099 | 106.13511 | 14962 ft | 381 kts | 292° |
| 2026-05-05 18:24 | 11.05068 | 106.10992 | 15446 ft | 384 kts | 290° |
| 2026-05-05 18:25 | 11.06017 | 106.08443 | 15949 ft | 386 kts | 290° |
| 2026-05-05 18:25 | 11.06649 | 106.06745 | 16269 ft | 388 kts | 290° |
| 2026-05-05 18:25 | 11.07953 | 106.03294 | 16906 ft | 392 kts | 291° |
| 2026-05-05 18:25 | 11.08951 | 106.00703 | 17375 ft | 395 kts | 291° |
| 2026-05-05 18:26 | 11.09927 | 105.98076 | 17814 ft | 398 kts | 287° |
| 2026-05-05 18:26 | 11.10507 | 105.95325 | 18245 ft | 399 kts | 275° |
| 2026-05-05 18:26 | 11.10546 | 105.92488 | 18612 ft | 402 kts | 266° |
| 2026-05-05 18:26 | 11.10326 | 105.89688 | 19008 ft | 403 kts | 263° |
| 2026-05-05 18:27 | 11.09963 | 105.86851 | 19403 ft | 405 kts | 261° |
| 2026-05-05 18:27 | 11.09530 | 105.84007 | 19786 ft | 407 kts | 260° |
| 2026-05-05 18:27 | 11.09073 | 105.81154 | 20147 ft | 410 kts | 260° |
| 2026-05-05 18:27 | 11.08617 | 105.78285 | 20526 ft | 412 kts | 260° |
| 2026-05-05 18:28 | 11.07755 | 105.72478 | 21298 ft | 416 kts | 263° |
| 2026-05-05 18:28 | 11.07653 | 105.69565 | 21653 ft | 419 kts | 272° |
| 2026-05-05 18:28 | 11.08032 | 105.66614 | 21998 ft | 423 kts | 282° |
| 2026-05-05 18:29 | 11.08792 | 105.63716 | 22393 ft | 425 kts | 286° |
| 2026-05-05 18:29 | 11.09708 | 105.60835 | 22718 ft | 428 kts | 288° |
| 2026-05-05 18:29 | 11.10708 | 105.57970 | 23078 ft | 430 kts | 289° |
| 2026-05-05 18:29 | 11.11744 | 105.55102 | 23425 ft | 433 kts | 290° |
| 2026-05-05 18:30 | 11.12784 | 105.52231 | 23706 ft | 435 kts | 290° |
| 2026-05-05 18:30 | 11.13827 | 105.49329 | 24001 ft | 437 kts | 289° |
| 2026-05-05 18:30 | 11.14865 | 105.46407 | 24287 ft | 439 kts | 289° |
| 2026-05-05 18:30 | 11.15897 | 105.43470 | 24599 ft | 441 kts | 289° |
| 2026-05-05 18:31 | 11.16912 | 105.40565 | 24878 ft | 443 kts | 289° |
| 2026-05-05 18:31 | 11.17944 | 105.37597 | 25176 ft | 444 kts | 289° |
| 2026-05-05 18:31 | 11.18975 | 105.34627 | 25468 ft | 446 kts | 289° |
| 2026-05-05 18:31 | 11.20012 | 105.31637 | 25743 ft | 448 kts | 289° |
| 2026-05-05 18:32 | 11.21053 | 105.28638 | 26034 ft | 450 kts | 289° |
| 2026-05-05 18:32 | 11.22098 | 105.25627 | 26357 ft | 451 kts | 289° |
| 2026-05-05 18:32 | 11.23144 | 105.22612 | 26644 ft | 452 kts | 289° |
| 2026-05-05 18:32 | 11.24196 | 105.19583 | 26912 ft | 454 kts | 289° |
| 2026-05-05 18:33 | 11.25254 | 105.16534 | 27183 ft | 456 kts | 289° |
| 2026-05-05 18:33 | 11.26312 | 105.13483 | 27452 ft | 458 kts | 289° |
| 2026-05-05 18:33 | 11.27376 | 105.10413 | 27722 ft | 460 kts | 289° |
| 2026-05-05 18:33 | 11.28443 | 105.07335 | 27987 ft | 462 kts | 289° |
| 2026-05-05 18:34 | 11.29514 | 105.04242 | 28256 ft | 464 kts | 289° |
| 2026-05-05 18:34 | 11.30589 | 105.01139 | 28506 ft | 465 kts | 289° |
| 2026-05-05 18:34 | 11.31668 | 104.98022 | 28759 ft | 467 kts | 289° |
| 2026-05-05 18:34 | 11.32751 | 104.94893 | 29008 ft | 469 kts | 289° |
| 2026-05-05 18:35 | 11.33900 | 104.91773 | 29260 ft | 471 kts | 293° |
| 2026-05-05 18:35 | 11.35373 | 104.88837 | 29518 ft | 473 kts | 298° |
| 2026-05-05 18:35 | 11.37030 | 104.85936 | 29750 ft | 475 kts | 300° |
| 2026-05-05 18:35 | 11.38757 | 104.83051 | 29971 ft | 477 kts | 301° |
| 2026-05-05 18:36 | 11.40523 | 104.80174 | 30159 ft | 478 kts | 301° |
| 2026-05-05 18:36 | 11.42302 | 104.77303 | 30367 ft | 480 kts | 301° |
| 2026-05-05 18:36 | 11.44088 | 104.74423 | 30565 ft | 481 kts | 301° |
| 2026-05-05 18:36 | 11.45878 | 104.71531 | 30767 ft | 482 kts | 301° |
| 2026-05-05 18:37 | 11.47660 | 104.68640 | 30957 ft | 483 kts | 301° |
| 2026-05-05 18:37 | 11.49448 | 104.65732 | 31155 ft | 484 kts | 301° |
| 2026-05-05 18:37 | 11.51238 | 104.62815 | 31350 ft | 486 kts | 301° |
| 2026-05-05 18:37 | 11.53030 | 104.59891 | 31531 ft | 487 kts | 301° |
| 2026-05-05 18:38 | 11.54824 | 104.56962 | 31709 ft | 488 kts | 301° |
| 2026-05-05 18:38 | 11.56605 | 104.54052 | 31923 ft | 488 kts | 301° |
| 2026-05-05 18:38 | 11.58398 | 104.51122 | 32218 ft | 486 kts | 301° |
| 2026-05-05 18:38 | 11.60187 | 104.48199 | 32522 ft | 485 kts | 301° |
| 2026-05-05 18:39 | 11.61970 | 104.45285 | 32799 ft | 484 kts | 301° |
| 2026-05-05 18:39 | 11.63749 | 104.42377 | 33068 ft | 483 kts | 301° |
| 2026-05-05 18:39 | 11.65522 | 104.39477 | 33329 ft | 482 kts | 301° |
| 2026-05-05 18:39 | 11.67295 | 104.36577 | 33587 ft | 481 kts | 301° |
| 2026-05-05 18:40 | 11.69063 | 104.33684 | 33874 ft | 480 kts | 301° |
| 2026-05-05 18:40 | 11.70826 | 104.30799 | 34124 ft | 478 kts | 301° |
| 2026-05-05 18:40 | 11.72584 | 104.27922 | 34344 ft | 478 kts | 301° |
| 2026-05-05 18:40 | 11.74342 | 104.25042 | 34558 ft | 477 kts | 301° |
| 2026-05-05 18:41 | 11.76096 | 104.22170 | 34789 ft | 476 kts | 301° |
| 2026-05-05 18:41 | 11.77842 | 104.19309 | 35066 ft | 474 kts | 301° |
| 2026-05-05 18:41 | 11.79579 | 104.16461 | 35344 ft | 472 kts | 301° |
| 2026-05-05 18:41 | 11.81312 | 104.13620 | 35557 ft | 471 kts | 301° |
| 2026-05-05 18:42 | 11.83045 | 104.10777 | 35757 ft | 471 kts | 301° |
| 2026-05-05 18:42 | 11.84773 | 104.07941 | 35954 ft | 471 kts | 301° |
| 2026-05-05 18:42 | 11.88237 | 104.02255 | 36022 ft | 470 kts | 301° |
| 2026-05-05 18:43 | 11.91687 | 103.96587 | 36021 ft | 469 kts | 301° |
| 2026-05-05 18:43 | 11.95110 | 103.90960 | 36029 ft | 469 kts | 301° |
| 2026-05-05 18:44 | 11.98548 | 103.85302 | 36027 ft | 469 kts | 301° |
| 2026-05-05 18:44 | 12.01990 | 103.79636 | 36031 ft | 470 kts | 301° |
| 2026-05-05 18:45 | 12.05441 | 103.73953 | 36032 ft | 470 kts | 301° |
| 2026-05-05 18:45 | 12.08890 | 103.68269 | 36029 ft | 469 kts | 301° |
| 2026-05-05 18:46 | 12.12322 | 103.62610 | 36041 ft | 468 kts | 301° |
| 2026-05-05 18:46 | 12.15753 | 103.56949 | 36024 ft | 468 kts | 301° |
| 2026-05-05 18:47 | 12.19157 | 103.51327 | 36028 ft | 468 kts | 301° |
| 2026-05-05 18:47 | 12.22589 | 103.45658 | 36024 ft | 468 kts | 301° |
| 2026-05-05 18:48 | 12.26010 | 103.40004 | 36022 ft | 467 kts | 301° |
| 2026-05-05 18:48 | 12.29411 | 103.34379 | 36039 ft | 467 kts | 301° |
| 2026-05-05 18:49 | 12.32830 | 103.28720 | 36024 ft | 467 kts | 301° |
| 2026-05-05 18:49 | 12.36247 | 103.23063 | 36020 ft | 467 kts | 301° |
| 2026-05-05 18:50 | 12.39665 | 103.17400 | 36033 ft | 467 kts | 301° |
| 2026-05-05 18:50 | 12.43077 | 103.11742 | 36030 ft | 467 kts | 301° |
| 2026-05-05 18:51 | 12.46486 | 103.06086 | 36022 ft | 466 kts | 301° |
| 2026-05-05 18:51 | 12.49879 | 103.00454 | 36026 ft | 465 kts | 301° |
| 2026-05-05 18:52 | 12.53270 | 102.94822 | 36009 ft | 464 kts | 301° |
| 2026-05-05 18:52 | 12.56659 | 102.89189 | 36021 ft | 464 kts | 301° |
| 2026-05-05 18:53 | 12.60032 | 102.83580 | 36010 ft | 465 kts | 301° |
| 2026-05-05 18:53 | 12.63423 | 102.77938 | 36003 ft | 465 kts | 301° |
| 2026-05-05 18:54 | 12.66813 | 102.72293 | 36016 ft | 467 kts | 301° |
| 2026-05-05 18:54 | 12.70219 | 102.66618 | 35999 ft | 467 kts | 301° |
| 2026-05-05 18:55 | 12.73620 | 102.60949 | 35999 ft | 467 kts | 301° |
| 2026-05-05 18:55 | 12.77005 | 102.55301 | 36007 ft | 467 kts | 300° |
| 2026-05-05 18:56 | 12.79779 | 102.49296 | 35995 ft | 466 kts | 292° |
| 2026-05-05 18:56 | 12.82191 | 102.43122 | 35999 ft | 466 kts | 290° |
| 2026-05-05 18:57 | 12.84530 | 102.36920 | 36011 ft | 466 kts | 291° |
| 2026-05-05 18:57 | 12.86875 | 102.30706 | 36006 ft | 468 kts | 291° |
| 2026-05-05 18:58 | 12.89234 | 102.24482 | 36011 ft | 468 kts | 291° |
| 2026-05-05 18:58 | 12.91581 | 102.18307 | 36009 ft | 468 kts | 291° |
| 2026-05-05 18:59 | 12.93941 | 102.12094 | 36015 ft | 468 kts | 291° |
| 2026-05-05 18:59 | 12.96303 | 102.05873 | 36013 ft | 468 kts | 291° |
| 2026-05-05 19:00 | 12.98661 | 101.99652 | 36013 ft | 467 kts | 291° |
| 2026-05-05 19:00 | 13.01014 | 101.93439 | 36015 ft | 467 kts | 291° |
| 2026-05-05 19:01 | 13.03359 | 101.87245 | 35999 ft | 467 kts | 291° |
| 2026-05-05 19:01 | 13.05176 | 101.82441 | 36005 ft | 467 kts | 291° |